Janesville, Illinois
Current Conditions -  °F | °C
As of 12:53 PM on Thursday 23 Oct 2014 (Local Time) from KMTO Reporting Station
Clear Clear  
Wind Chill: 56°   Ceiling: Unl
Heat Index: 56°   Visibility: 10mi
Dew Point: 42°   Wind: 9mph
Humidity: 60%   Direction: 180°S
Pressure: 30.19"   Gusts: NA
Location:  39.37°N, 88.24°W
Report Text: KMTO 231753Z AUTO 18008KT 10SM CLR 13/06 A3019 RMK AO2 SLP225 T01330056 10133 20044 58015
Loading
Personal Weather Stations






























Interactive Weather Map
Tropical Storm Tracking
New forecast layout! Learn more

10-Day Weather Forecast

Advertisements
Track Severe Weather on mobile